Time;durP1;ratioP1;P1;durP2;ratioP2;P2;SDS_P1;SDS_P2;PMS_P1;PMS_P2;Temp;Humidity;BMP_temperature;BMP_pressure;BME280_temperature;BME280_humidity;BME280_pressure;Samples;Min_cycle;Max_cycle;Signal;HPM_P1;HPM_P2
2021/01/24 06:16:52;;;;;;;1.40;1.40;;;2.30;99.90;;;;;;5254275;23;20250;-79
2021/01/24 06:19:23;;;;;;;1.40;1.40;;;2.50;99.90;;;;;;4919810;29;20627;-78
2021/01/24 06:21:53;;;;;;;1.20;1.20;;;2.50;99.90;;;;;;4926247;29;20211;-78
2021/01/24 06:24:24;;;;;;;1.10;1.10;;;2.40;99.90;;;;;;4925221;29;20207;-78
2021/01/24 06:26:56;;;;;;;1.10;1.10;;;2.20;99.90;;;;;;4922988;29;20237;-77
2021/01/24 06:29:25;;;;;;;1.20;1.20;;;2.20;99.90;;;;;;4924934;29;20237;-79
2021/01/24 06:31:54;;;;;;;1.30;1.30;;;2.10;99.90;;;;;;4909048;23;20712;-78
2021/01/24 06:34:34;;;;;;;1.30;1.30;;;2.20;99.90;;;;;;4886278;29;20204;-79
2021/01/24 06:37:08;;;;;;;1.20;1.20;;;2.30;99.90;;;;;;4886098;29;20196;-79
2021/01/24 06:39:51;;;;;;;1.23;1.23;;;2.40;99.90;;;;;;4887415;29;20197;-78
2021/01/24 06:42:38;;;;;;;1.00;1.00;;;2.30;99.90;;;;;;4884845;29;20256;-78
2021/01/24 06:45:06;;;;;;;1.20;1.20;;;2.10;99.90;;;;;;4886759;29;20204;-79
2021/01/24 06:47:39;;;;;;;1.00;1.00;;;2.10;99.90;;;;;;4888329;29;20204;-78
2021/01/24 06:50:38;;;;;;;1.20;1.20;;;2.40;99.90;;;;;;4888698;29;20216;-78
2021/01/24 06:53:06;;;;;;;1.10;1.10;;;2.30;99.90;;;;;;4882131;29;20558;-78
2021/01/24 06:55:38;;;;;;;1.20;1.20;;;2.40;99.90;;;;;;4880659;29;20677;-78
2021/01/24 06:58:24;;;;;;;1.30;1.30;;;2.50;99.90;;;;;;4880230;29;20652;-78
2021/01/24 07:00:52;;;;;;;1.30;1.30;;;2.60;99.90;;;;;;4879924;29;20220;-78
2021/01/24 07:03:21;;;;;;;1.20;1.20;;;2.50;99.90;;;;;;4880165;29;20208;-78
2021/01/24 07:05:48;;;;;;;1.10;1.10;;;2.40;99.90;;;;;;4886522;29;20215;-78
2021/01/24 07:08:31;;;;;;;1.30;1.30;;;2.40;99.90;;;;;;4897618;29;20240;-78
2021/01/24 07:10:58;;;;;;;1.10;1.10;;;2.40;99.90;;;;;;4897873;29;20259;-79
2021/01/24 07:13:33;;;;;;;1.10;1.10;;;2.60;99.90;;;;;;4898268;29;20219;-76
2021/01/24 07:16:01;;;;;;;1.10;1.10;;;2.60;99.90;;;;;;4898571;29;20203;-79
2021/01/24 07:18:39;;;;;;;1.20;1.20;;;2.80;99.90;;;;;;4898133;29;20211;-77
2021/01/24 07:21:06;;;;;;;1.20;1.20;;;2.90;99.90;;;;;;4899621;29;20773;-80
2021/01/24 07:23:34;;;;;;;1.23;1.23;;;3.00;99.90;;;;;;4900120;29;20619;-80
2021/01/24 07:26:03;;;;;;;1.10;1.10;;;2.80;99.90;;;;;;4898828;29;20211;-78
2021/01/24 07:28:30;;;;;;;1.40;1.40;;;2.80;99.90;;;;;;4898192;29;20741;-78
2021/01/24 07:31:01;;;;;;;1.30;1.30;;;2.80;99.90;;;;;;4898774;29;20602;-80
2021/01/24 07:33:30;;;;;;;1.30;1.30;;;2.70;99.90;;;;;;4898382;29;20215;-80
2021/01/24 07:36:04;;;;;;;1.30;1.30;;;2.70;99.90;;;;;;4899106;29;20207;-78
2021/01/24 07:38:31;;;;;;;1.20;1.20;;;2.90;99.90;;;;;;4897848;29;20199;-79
2021/01/24 07:40:59;;;;;;;1.10;1.10;;;2.60;99.90;;;;;;4891969;29;20292;-77
2021/01/24 07:43:27;;;;;;;1.10;1.10;;;2.50;99.90;;;;;;4883371;29;20696;-78
2021/01/24 07:45:55;;;;;;;1.30;1.30;;;2.40;99.90;;;;;;4876517;29;20634;-79
2021/01/24 07:48:24;;;;;;;1.50;1.50;;;2.60;99.90;;;;;;4877629;29;20208;-77
2021/01/24 07:50:52;;;;;;;1.30;1.30;;;2.50;99.90;;;;;;4880155;29;20236;-77
2021/01/24 07:53:21;;;;;;;1.33;1.33;;;2.40;99.90;;;;;;4879940;29;20256;-78
2021/01/24 07:55:48;;;;;;;1.40;1.40;;;2.50;99.90;;;;;;4879026;29;20200;-76
2021/01/24 07:58:16;;;;;;;1.20;1.20;;;2.40;99.90;;;;;;4877711;29;20215;-76
2021/01/24 08:00:47;;;;;;;1.17;1.17;;;2.50;99.90;;;;;;4878101;29;20319;-76
2021/01/24 08:03:19;;;;;;;1.30;1.30;;;2.50;99.90;;;;;;4878028;29;20753;-78
2021/01/24 08:05:47;;;;;;;1.20;1.20;;;2.60;99.90;;;;;;4878905;29;20196;-77
2021/01/24 08:08:14;;;;;;;1.43;1.43;;;2.60;99.90;;;;;;4878082;29;20212;-77
2021/01/24 08:10:43;;;;;;;1.10;1.10;;;2.80;99.90;;;;;;4878280;29;20232;-79
2021/01/24 08:13:10;;;;;;;1.20;1.20;;;2.70;99.90;;;;;;4888138;29;20214;-77
2021/01/24 08:15:37;;;;;;;1.03;1.03;;;2.80;99.90;;;;;;4897298;29;20636;-78
2021/01/24 08:18:05;;;;;;;1.37;1.37;;;3.20;99.90;;;;;;4884027;29;20204;-77
2021/01/24 08:20:32;;;;;;;1.33;1.33;;;;;;;;;;4875573;29;20605;-77
2021/01/24 08:23:00;;;;;;;1.10;1.10;;;3.60;99.90;;;;;;4878429;29;20200;-77
2021/01/24 08:25:28;;;;;;;1.30;1.30;;;3.50;99.90;;;;;;4878812;29;20230;-77
2021/01/24 08:27:56;;;;;;;1.20;1.20;;;3.70;99.90;;;;;;4879772;29;20215;-77
2021/01/24 08:30:24;;;;;;;1.20;1.20;;;3.80;99.90;;;;;;4881700;29;20587;-77
2021/01/24 08:32:51;;;;;;;1.10;1.10;;;4.00;99.90;;;;;;4882722;29;20212;-77
2021/01/24 08:35:19;;;;;;;1.17;1.17;;;3.60;99.90;;;;;;4882288;29;20215;-78
2021/01/24 08:37:46;;;;;;;1.30;1.30;;;3.80;99.90;;;;;;4882524;29;20208;-78
2021/01/24 08:40:14;;;;;;;1.20;1.20;;;3.60;99.90;;;;;;4882518;29;20315;-78
2021/01/24 08:42:49;;;;;;;1.10;1.10;;;3.60;99.90;;;;;;4882224;29;20264;-78
2021/01/24 08:45:21;;;;;;;1.10;1.10;;;3.80;99.90;;;;;;4881827;29;20228;-77
2021/01/24 08:47:52;;;;;;;1.30;1.30;;;3.70;99.90;;;;;;4881998;29;20212;-77
2021/01/24 08:50:20;;;;;;;1.33;1.33;;;3.60;99.90;;;;;;4881654;29;20239;-77
2021/01/24 08:52:54;;;;;;;1.20;1.20;;;3.40;99.90;;;;;;4882402;29;20211;-77
2021/01/24 08:55:21;;;;;;;1.30;1.30;;;3.30;99.90;;;;;;4881796;29;20666;-77
2021/01/24 08:57:52;;;;;;;1.20;1.20;;;3.20;99.90;;;;;;4881931;29;20212;-77
2021/01/24 09:00:22;;;;;;;1.20;1.20;;;3.00;99.90;;;;;;4881701;29;20642;-78
2021/01/24 09:02:51;;;;;;;1.40;1.40;;;;;;;;;;4881393;29;20208;-77
2021/01/24 09:05:30;;;;;;;1.20;1.20;;;2.90;99.90;;;;;;4881840;29;20208;-77
2021/01/24 09:07:57;;;;;;;1.17;1.17;;;2.90;99.90;;;;;;4881774;29;20207;-77
2021/01/24 09:10:27;;;;;;;1.20;1.20;;;2.90;99.90;;;;;;4882092;29;20657;-77
2021/01/24 09:12:56;;;;;;;1.30;1.30;;;2.80;99.90;;;;;;4881608;29;20204;-77
2021/01/24 09:15:24;;;;;;;1.30;1.30;;;2.70;99.90;;;;;;4881852;29;20212;-76
2021/01/24 09:17:53;;;;;;;1.13;1.13;;;2.80;99.90;;;;;;4881532;29;20260;-75
2021/01/24 09:20:25;;;;;;;1.23;1.23;;;3.00;99.90;;;;;;4882819;29;20335;-80
2021/01/24 09:22:53;;;;;;;1.20;1.20;;;3.00;99.90;;;;;;4883245;29;20264;-78
2021/01/24 09:25:20;;;;;;;1.20;1.20;;;3.00;99.90;;;;;;4882516;29;20207;-79
2021/01/24 09:27:47;;;;;;;1.10;1.10;;;3.00;99.90;;;;;;4881848;29;20634;-77
2021/01/24 09:30:17;;;;;;;1.20;1.20;;;3.00;99.90;;;;;;4881789;29;20778;-78
2021/01/24 09:32:45;;;;;;;1.30;1.30;;;3.00;99.90;;;;;;4882363;29;20208;-79
2021/01/24 09:35:12;;;;;;;1.23;1.23;;;3.10;99.90;;;;;;4881694;29;20219;-77
2021/01/24 09:37:39;;;;;;;1.20;1.20;;;3.40;99.90;;;;;;4881808;29;20218;-78
2021/01/24 09:40:07;;;;;;;1.20;1.20;;;4.00;99.90;;;;;;4881890;29;20200;-77
2021/01/24 09:42:34;;;;;;;1.30;1.30;;;4.00;99.90;;;;;;4882564;29;20204;-77
2021/01/24 09:45:01;;;;;;;1.17;1.17;;;4.10;99.90;;;;;;4882127;29;20208;-77
2021/01/24 09:47:28;;;;;;;1.10;1.10;;;4.30;99.90;;;;;;4882787;29;20215;-77
2021/01/24 09:49:56;;;;;;;1.20;1.20;;;4.40;99.90;;;;;;4881707;29;20227;-78
2021/01/24 09:52:24;;;;;;;1.10;1.10;;;;;;;;;;4907002;23;20311;-78
2021/01/24 09:54:51;;;;;;;1.30;1.30;;;4.50;99.90;;;;;;4900005;29;20250;-78
2021/01/24 09:57:17;;;;;;;1.20;1.20;;;4.60;99.90;;;;;;4899823;29;20236;-78
2021/01/24 09:59:44;;;;;;;1.20;1.20;;;4.40;99.90;;;;;;4899467;29;20831;-78
2021/01/24 10:02:11;;;;;;;1.30;1.30;;;4.30;99.90;;;;;;4899294;29;20307;-78
2021/01/24 10:04:38;;;;;;;1.20;1.20;;;4.30;99.90;;;;;;4900017;29;20203;-80
2021/01/24 10:07:06;;;;;;;1.07;1.07;;;4.20;99.90;;;;;;4899647;29;20215;-78
2021/01/24 10:09:33;;;;;;;1.20;1.20;;;4.10;99.90;;;;;;4899427;29;20212;-77
2021/01/24 10:12:00;;;;;;;1.20;1.20;;;4.00;99.90;;;;;;4899343;29;20298;-77
2021/01/24 10:14:27;;;;;;;1.17;1.17;;;4.00;99.90;;;;;;4899670;29;20692;-78
2021/01/24 10:16:54;;;;;;;1.20;1.20;;;4.10;99.90;;;;;;4899981;29;20283;-76
2021/01/24 10:19:22;;;;;;;1.20;1.20;;;;;;;;;;4898470;29;20595;-78
2021/01/24 10:21:51;;;;;;;1.20;1.20;;;;;;;;;;4897962;29;20227;-78
2021/01/24 10:24:23;;;;;;;1.20;1.20;;;4.80;99.90;;;;;;4898784;29;20267;-79
2021/01/24 10:26:52;;;;;;;1.30;1.30;;;4.90;99.90;;;;;;4898700;29;20207;-80
2021/01/24 10:29:20;;;;;;;1.10;1.10;;;;;;;;;;4898545;29;20212;-79
2021/01/24 10:31:47;;;;;;;1.20;1.20;;;;;;;;;;4898919;29;20736;-80
2021/01/24 10:34:14;;;;;;;1.20;1.20;;;;;;;;;;4899232;29;20691;-78
2021/01/24 10:36:41;;;;;;;1.20;1.20;;;4.60;99.90;;;;;;4898698;29;20266;-78
2021/01/24 10:39:08;;;;;;;1.20;1.20;;;4.60;99.90;;;;;;4899064;29;20207;-78
2021/01/24 10:41:36;;;;;;;1.10;1.10;;;4.70;99.90;;;;;;4899278;29;20647;-78
2021/01/24 10:44:03;;;;;;;1.10;1.10;;;4.60;99.90;;;;;;4899520;29;20673;-77
2021/01/24 10:46:33;;;;;;;1.13;1.13;;;4.60;99.90;;;;;;4899291;29;20561;-79
2021/01/24 10:49:02;;;;;;;1.20;1.20;;;4.80;99.90;;;;;;4898443;29;20247;-77
2021/01/24 10:51:29;;;;;;;1.27;1.27;;;4.80;99.90;;;;;;4897444;29;20235;-77
2021/01/24 10:53:56;;;;;;;1.20;1.20;;;;;;;;;;4897754;29;20211;-78
2021/01/24 10:56:23;;;;;;;1.20;1.20;;;4.80;99.90;;;;;;4900877;29;20696;-79
2021/01/24 10:58:52;;;;;;;1.10;1.10;;;4.80;99.90;;;;;;4900242;29;20296;-76
2021/01/24 11:01:19;;;;;;;1.20;1.20;;;4.90;99.90;;;;;;4898644;29;20769;-79
2021/01/24 11:03:46;;;;;;;1.20;1.20;;;4.90;99.90;;;;;;4899004;29;20207;-76
2021/01/24 11:06:14;;;;;;;1.20;1.20;;;4.90;99.90;;;;;;4899314;29;20219;-79
2021/01/24 11:08:41;;;;;;;1.10;1.10;;;4.90;99.90;;;;;;4899755;29;20214;-78
2021/01/24 11:11:07;;;;;;;1.10;1.10;;;4.70;99.90;;;;;;4898709;29;20243;-77
2021/01/24 11:13:37;;;;;;;1.10;1.10;;;4.40;99.90;;;;;;4891462;29;20212;-78
2021/01/24 11:16:05;;;;;;;1.27;1.27;;;4.30;99.90;;;;;;4891560;29;20286;-78
2021/01/24 11:18:32;;;;;;;1.20;1.20;;;4.30;99.90;;;;;;4899686;29;20211;-78
2021/01/24 11:21:02;;;;;;;1.03;1.03;;;4.30;99.90;;;;;;4896998;29;20295;-77
2021/01/24 11:23:30;;;;;;;1.07;1.07;;;;;;;;;;4897985;29;20208;-78
2021/01/24 11:25:58;;;;;;;1.43;1.43;;;;;;;;;;4897967;29;20207;-78
2021/01/24 11:28:25;;;;;;;1.33;1.33;;;;;;;;;;4897876;29;20211;-78
2021/01/24 11:30:52;;;;;;;1.30;1.30;;;;;;;;;;4898069;29;20235;-78
2021/01/24 11:33:20;;;;;;;1.20;1.20;;;4.70;99.90;;;;;;4898292;29;20211;-78
2021/01/24 11:35:48;;;;;;;1.13;1.13;;;;;;;;;;4898236;29;20250;-78
2021/01/24 11:38:15;;;;;;;1.40;1.40;;;4.70;99.90;;;;;;4897426;29;20203;-78
2021/01/24 11:40:41;;;;;;;1.20;1.20;;;4.70;99.90;;;;;;4897587;29;20231;-78
2021/01/24 11:43:08;;;;;;;1.10;1.10;;;4.80;99.90;;;;;;4898001;29;20211;-76
2021/01/24 11:45:35;;;;;;;1.17;1.17;;;4.90;99.90;;;;;;4898991;29;20207;-78
2021/01/24 11:48:03;;;;;;;1.20;1.20;;;4.80;99.90;;;;;;4897970;29;20255;-78
2021/01/24 11:50:30;;;;;;;1.40;1.40;;;4.90;99.90;;;;;;4897806;29;20307;-78
2021/01/24 11:52:57;;;;;;;1.20;1.20;;;5.00;99.90;;;;;;4896696;29;20613;-78
2021/01/24 11:55:24;;;;;;;1.23;1.23;;;4.80;99.90;;;;;;4897219;29;20688;-79
2021/01/24 11:57:51;;;;;;;1.30;1.30;;;4.70;99.90;;;;;;4897256;29;21360;-79
2021/01/24 12:00:19;;;;;;;1.10;1.10;;;4.20;99.90;;;;;;4896962;29;21628;-78
2021/01/24 12:02:46;;;;;;;1.20;1.20;;;4.20;99.90;;;;;;4897845;29;20621;-78
2021/01/24 12:05:15;;;;;;;1.10;1.10;;;4.40;99.90;;;;;;4898298;29;20207;-78
2021/01/24 12:07:43;;;;;;;1.30;1.30;;;4.60;99.90;;;;;;4901715;29;20199;-79
2021/01/24 12:10:12;;;;;;;1.20;1.20;;;4.80;99.90;;;;;;4901632;29;20797;-79
2021/01/24 12:12:39;;;;;;;1.30;1.30;;;4.80;99.90;;;;;;4903090;29;20199;-79
2021/01/24 12:15:07;;;;;;;1.47;1.47;;;4.80;99.90;;;;;;4904837;29;20275;-79
2021/01/24 12:17:35;;;;;;;1.10;1.10;;;4.90;99.90;;;;;;4901195;29;20751;-79
2021/01/24 12:20:03;;;;;;;1.20;1.20;;;;;;;;;;4903635;29;20195;-79
2021/01/24 12:22:30;;;;;;;1.10;1.10;;;;;;;;;;4903030;29;20721;-80
2021/01/24 12:24:58;;;;;;;1.30;1.30;;;5.00;99.90;;;;;;4903191;29;20220;-80
2021/01/24 12:27:25;;;;;;;1.10;1.10;;;;;;;;;;4903796;29;20211;-80
2021/01/24 12:29:52;;;;;;;1.27;1.27;;;;;;;;;;4902521;29;20202;-78
2021/01/24 12:32:23;;;;;;;1.10;1.10;;;5.20;99.90;;;;;;4901712;29;20283;-78
2021/01/24 12:34:50;;;;;;;1.20;1.20;;;;;;;;;;4900937;29;20199;-78
2021/01/24 12:37:18;;;;;;;1.40;1.40;;;;;;;;;;4901207;29;20208;-78
2021/01/24 12:39:45;;;;;;;1.10;1.10;;;;;;;;;;4901040;29;20584;-79
2021/01/24 12:42:13;;;;;;;1.33;1.33;;;5.40;99.90;;;;;;4900902;29;20225;-79
2021/01/24 12:44:40;;;;;;;1.20;1.20;;;;;;;;;;4900726;29;20231;-78
2021/01/24 12:47:10;;;;;;;1.20;1.20;;;5.40;99.90;;;;;;4900684;29;20199;-79
2021/01/24 12:49:38;;;;;;;1.20;1.20;;;;;;;;;;4908766;29;20661;-79
2021/01/24 12:52:06;;;;;;;1.30;1.30;;;5.50;99.90;;;;;;4903910;29;20226;-77
2021/01/24 12:54:33;;;;;;;1.10;1.10;;;5.40;99.90;;;;;;4919279;29;20210;-78
2021/01/24 12:57:00;;;;;;;1.10;1.10;;;5.40;99.90;;;;;;4918585;29;20215;-79
2021/01/24 12:59:27;;;;;;;1.20;1.20;;;5.40;99.90;;;;;;4918598;29;20739;-78
2021/01/24 13:01:55;;;;;;;1.30;1.30;;;;;;;;;;4919574;29;20644;-78
2021/01/24 13:04:22;;;;;;;1.20;1.20;;;5.40;99.90;;;;;;4919761;29;20203;-78
2021/01/24 13:06:49;;;;;;;1.10;1.10;;;5.40;99.90;;;;;;4918166;29;20210;-80
2021/01/24 13:09:16;;;;;;;1.17;1.17;;;5.30;99.90;;;;;;4915908;29;20274;-77
2021/01/24 13:11:43;;;;;;;1.20;1.20;;;5.30;99.90;;;;;;4915437;29;20708;-77
2021/01/24 13:14:10;;;;;;;1.33;1.33;;;5.20;99.90;;;;;;4916293;29;20720;-77
2021/01/24 13:16:38;;;;;;;1.20;1.20;;;5.20;99.90;;;;;;4916562;29;20210;-77
2021/01/24 13:19:05;;;;;;;1.30;1.30;;;5.30;99.90;;;;;;4918749;29;20567;-78
2021/01/24 13:21:31;;;;;;;1.23;1.23;;;5.40;99.90;;;;;;4905663;29;20370;-77
2021/01/24 13:23:58;;;;;;;1.10;1.10;;;5.50;99.90;;;;;;4899047;29;20211;-77
2021/01/24 13:26:25;;;;;;;1.30;1.30;;;5.60;99.90;;;;;;4897465;29;20211;-78
2021/01/24 13:28:52;;;;;;;1.20;1.20;;;5.50;99.90;;;;;;4898530;29;20673;-77
2021/01/24 13:31:20;;;;;;;1.00;1.00;;;5.70;99.90;;;;;;4898499;29;20227;-77
2021/01/24 13:33:48;;;;;;;1.20;1.20;;;5.60;99.90;;;;;;4898592;29;20287;-77
2021/01/24 13:36:16;;;;;;;1.10;1.10;;;5.60;99.90;;;;;;4898832;29;20294;-77
2021/01/24 13:38:42;;;;;;;1.13;1.13;;;5.50;99.90;;;;;;4898845;29;20696;-77
2021/01/24 13:41:09;;;;;;;1.10;1.10;;;5.40;99.90;;;;;;4899074;29;20224;-77
2021/01/24 13:43:36;;;;;;;1.10;1.10;;;5.40;99.90;;;;;;4898978;29;20267;-77
2021/01/24 13:46:03;;;;;;;1.17;1.17;;;5.30;99.90;;;;;;4899273;29;20204;-77
2021/01/24 13:48:31;;;;;;;1.10;1.10;;;5.30;99.90;;;;;;4898796;29;20326;-77
2021/01/24 13:50:58;;;;;;;1.00;1.00;;;5.40;99.90;;;;;;4898427;29;20246;-77
2021/01/24 13:53:26;;;;;;;1.00;1.00;;;5.50;99.90;;;;;;4898549;29;20665;-77
2021/01/24 13:55:54;;;;;;;1.17;1.17;;;5.50;99.90;;;;;;4898603;29;20673;-77
2021/01/24 13:58:21;;;;;;;1.10;1.10;;;;;;;;;;4898374;29;20207;-77
2021/01/24 14:00:48;;;;;;;1.10;1.10;;;5.70;99.90;;;;;;4898907;29;20275;-76
2021/01/24 14:03:15;;;;;;;1.20;1.20;;;5.50;99.90;;;;;;4898749;29;20250;-76
2021/01/24 14:05:42;;;;;;;1.10;1.10;;;5.40;99.90;;;;;;4897395;29;20633;-76
2021/01/24 14:08:11;;;;;;;1.13;1.13;;;5.40;99.90;;;;;;4909207;29;20202;-75
2021/01/24 14:10:38;;;;;;;1.20;1.20;;;5.40;99.90;;;;;;4917198;29;20226;-72
2021/01/24 14:13:04;;;;;;;1.20;1.20;;;5.50;99.90;;;;;;4917057;29;20210;-76
2021/01/24 14:15:32;;;;;;;1.30;1.30;;;5.40;99.90;;;;;;4917601;29;20281;-76
2021/01/24 14:17:59;;;;;;;1.17;1.17;;;5.30;99.90;;;;;;4917015;29;20743;-77
2021/01/24 14:20:27;;;;;;;1.17;1.17;;;5.30;99.90;;;;;;4917919;29;20277;-78
2021/01/24 14:22:54;;;;;;;1.00;1.00;;;5.20;99.90;;;;;;4917502;29;20634;-77
2021/01/24 14:25:22;;;;;;;1.10;1.10;;;5.40;99.90;;;;;;4916402;29;20235;-79
2021/01/24 14:27:51;;;;;;;1.10;1.10;;;5.30;99.90;;;;;;4918878;29;20206;-80
2021/01/24 14:30:20;;;;;;;1.00;1.00;;;5.30;99.90;;;;;;4917222;29;20230;-76
2021/01/24 14:32:47;;;;;;;1.20;1.20;;;5.00;99.90;;;;;;4917378;29;20259;-77
2021/01/24 14:35:14;;;;;;;1.10;1.10;;;5.00;99.90;;;;;;4917068;29;20239;-76
2021/01/24 14:37:41;;;;;;;1.10;1.10;;;4.90;99.90;;;;;;4917039;29;20210;-78
2021/01/24 14:40:09;;;;;;;1.10;1.10;;;5.00;99.90;;;;;;4917598;29;20206;-79
2021/01/24 14:42:37;;;;;;;1.10;1.10;;;5.00;99.90;;;;;;4917624;29;20210;-78
2021/01/24 14:45:05;;;;;;;1.10;1.10;;;5.00;99.90;;;;;;4918261;29;20207;-77
2021/01/24 14:47:32;;;;;;;1.03;1.03;;;5.10;99.90;;;;;;4918353;29;20351;-78
2021/01/24 14:50:00;;;;;;;1.20;1.20;;;4.80;99.90;;;;;;4917764;29;20203;-79
2021/01/24 14:52:27;;;;;;;1.10;1.10;;;4.70;99.90;;;;;;4917557;29;20310;-79
2021/01/24 14:54:54;;;;;;;1.20;1.20;;;4.70;99.90;;;;;;4917046;29;20210;-80
2021/01/24 14:57:21;;;;;;;1.10;1.10;;;4.60;99.90;;;;;;4917990;29;20207;-79
2021/01/24 14:59:48;;;;;;;1.30;1.30;;;4.60;99.90;;;;;;4919233;29;20707;-79
2021/01/24 15:02:15;;;;;;;1.30;1.30;;;4.70;99.90;;;;;;4918592;29;20635;-78
2021/01/24 15:04:42;;;;;;;1.10;1.10;;;4.90;99.90;;;;;;4916749;29;20671;-78
2021/01/24 15:07:09;;;;;;;1.10;1.10;;;5.10;99.90;;;;;;4916864;29;20262;-76
2021/01/24 15:09:41;;;;;;;1.00;1.00;;;5.00;99.90;;;;;;4916297;29;20301;-74
2021/01/24 15:12:10;;;;;;;1.07;1.07;;;4.80;99.90;;;;;;4916252;29;20230;-76
2021/01/24 15:14:37;;;;;;;1.20;1.20;;;;;;;;;;4915843;29;20732;-78
2021/01/24 15:17:04;;;;;;;1.20;1.20;;;4.70;99.90;;;;;;4892892;29;20464;-76
2021/01/24 15:19:31;;;;;;;1.10;1.10;;;4.80;99.90;;;;;;4897003;29;20334;-76
2021/01/24 15:21:58;;;;;;;1.10;1.10;;;4.40;99.90;;;;;;4897292;29;20298;-78
2021/01/24 15:24:25;;;;;;;1.20;1.20;;;4.40;99.90;;;;;;4897133;29;20665;-77
2021/01/24 15:26:52;;;;;;;1.20;1.20;;;4.50;99.90;;;;;;4895627;29;20657;-76
2021/01/24 15:29:20;;;;;;;1.20;1.20;;;4.40;99.90;;;;;;4895634;29;20192;-78
2021/01/24 15:31:47;;;;;;;1.20;1.20;;;4.20;99.90;;;;;;4896324;29;20227;-78
2021/01/24 15:34:15;;;;;;;1.10;1.10;;;4.30;99.90;;;;;;4898248;29;20198;-79
2021/01/24 15:36:43;;;;;;;1.17;1.17;;;4.30;99.90;;;;;;4897720;29;20199;-78
2021/01/24 15:39:10;;;;;;;1.20;1.20;;;4.20;99.90;;;;;;4898121;29;20219;-79
2021/01/24 15:41:42;;;;;;;1.10;1.10;;;4.10;99.90;;;;;;4897865;29;20277;-79
2021/01/24 15:44:09;;;;;;;1.27;1.27;;;4.30;99.90;;;;;;4898303;29;20298;-80
2021/01/24 15:46:39;;;;;;;1.10;1.10;;;4.50;99.90;;;;;;4899349;29;20192;-80
2021/01/24 15:49:06;;;;;;;1.00;1.00;;;4.50;99.90;;;;;;4899318;29;20653;-79
2021/01/24 15:51:34;;;;;;;1.07;1.07;;;4.60;99.90;;;;;;4897405;29;20227;-79
2021/01/24 15:54:02;;;;;;;1.10;1.10;;;4.40;99.90;;;;;;4899114;29;20270;-78
2021/01/24 15:56:29;;;;;;;1.17;1.17;;;4.50;99.90;;;;;;4899261;29;20207;-79
2021/01/24 15:58:56;;;;;;;1.10;1.10;;;4.60;99.90;;;;;;4899044;29;20206;-80
2021/01/24 16:01:23;;;;;;;1.20;1.20;;;4.60;99.90;;;;;;4899368;29;20231;-77
2021/01/24 16:03:50;;;;;;;1.20;1.20;;;4.70;99.90;;;;;;4898327;29;20263;-80
2021/01/24 16:06:17;;;;;;;1.10;1.10;;;;;;;;;;4899158;29;20195;-80
2021/01/24 16:08:45;;;;;;;1.10;1.10;;;4.90;99.90;;;;;;4898739;29;20251;-81
2021/01/24 16:11:12;;;;;;;1.10;1.10;;;5.00;99.90;;;;;;4898846;29;20299;-80
2021/01/24 16:13:39;;;;;;;1.10;1.10;;;5.10;99.90;;;;;;4898277;29;20233;-80
2021/01/24 16:16:06;;;;;;;1.20;1.20;;;5.10;99.90;;;;;;4899659;29;20211;-79
2021/01/24 16:18:33;;;;;;;1.20;1.20;;;5.10;99.90;;;;;;4900139;29;20254;-81
2021/01/24 16:21:00;;;;;;;1.13;1.13;;;5.10;99.90;;;;;;4899229;29;20230;-79
2021/01/24 16:23:27;;;;;;;1.10;1.10;;;5.00;99.90;;;;;;4899204;29;20210;-80
2021/01/24 16:25:54;;;;;;;1.20;1.20;;;4.80;99.90;;;;;;4896550;29;20236;-80
2021/01/24 16:28:21;;;;;;;1.17;1.17;;;4.90;99.90;;;;;;4898325;29;20191;-80
2021/01/24 16:30:48;;;;;;;1.00;1.00;;;4.90;99.90;;;;;;4897109;29;20556;-81
2021/01/24 16:33:15;;;;;;;1.10;1.10;;;5.00;99.90;;;;;;4897331;29;20235;-79
2021/01/24 16:35:43;;;;;;;1.10;1.10;;;;;;;;;;4895731;29;20632;-77
2021/01/24 16:38:11;;;;;;;1.40;1.40;;;5.80;99.90;;;;;;4896846;29;20642;-79
2021/01/24 16:40:37;;;;;;;1.00;1.00;;;5.00;99.90;;;;;;4897527;29;20227;-80
2021/01/24 16:43:05;;;;;;;1.20;1.20;;;5.10;99.90;;;;;;4898029;29;20207;-78
2021/01/24 16:45:33;;;;;;;1.07;1.07;;;5.00;99.90;;;;;;4897701;29;20211;-80
2021/01/24 16:48:00;;;;;;;1.23;1.23;;;4.90;99.90;;;;;;4896647;29;20300;-78
2021/01/24 16:50:28;;;;;;;1.13;1.13;;;4.90;99.90;;;;;;4900134;29;20227;-80
2021/01/24 16:52:54;;;;;;;1.00;1.00;;;4.80;99.90;;;;;;4901535;29;20226;-79
2021/01/24 16:55:21;;;;;;;1.20;1.20;;;4.80;99.90;;;;;;4902336;29;20669;-80
2021/01/24 16:57:48;;;;;;;1.20;1.20;;;4.80;99.90;;;;;;4902399;29;20211;-79
2021/01/24 17:00:17;;;;;;;1.30;1.30;;;4.90;99.90;;;;;;4900564;29;20211;-77
2021/01/24 17:02:44;;;;;;;1.10;1.10;;;4.80;99.90;;;;;;4901320;29;20669;-79
2021/01/24 17:05:11;;;;;;;1.07;1.07;;;4.70;99.90;;;;;;4902088;29;20242;-80
2021/01/24 17:07:38;;;;;;;1.00;1.00;;;4.70;99.90;;;;;;4901978;29;20237;-79
2021/01/24 17:10:06;;;;;;;1.00;1.00;;;4.90;99.90;;;;;;4900932;29;20248;-79
2021/01/24 17:12:34;;;;;;;1.20;1.20;;;4.80;99.90;;;;;;4899598;29;20236;-77
2021/01/24 17:15:01;;;;;;;1.10;1.10;;;4.80;99.90;;;;;;4899232;29;20207;-77
2021/01/24 17:17:30;;;;;;;1.00;1.00;;;4.70;99.90;;;;;;4898373;29;20208;-77
2021/01/24 17:19:57;;;;;;;1.20;1.20;;;4.80;99.90;;;;;;4898912;29;20294;-77
2021/01/24 17:22:24;;;;;;;1.10;1.10;;;4.70;99.90;;;;;;4899340;29;20259;-78
2021/01/24 17:24:51;;;;;;;1.20;1.20;;;4.60;99.90;;;;;;4899923;29;20214;-78
2021/01/24 17:27:18;;;;;;;0.90;0.90;;;4.60;99.90;;;;;;4899685;29;20740;-78
2021/01/24 17:29:44;;;;;;;1.20;1.20;;;4.70;99.90;;;;;;4901102;29;20350;-79
2021/01/24 17:32:11;;;;;;;1.10;1.10;;;4.70;99.90;;;;;;4906447;29;20231;-75
2021/01/24 17:34:39;;;;;;;1.20;1.20;;;4.60;99.90;;;;;;4901580;29;20263;-76
2021/01/24 17:37:06;;;;;;;1.27;1.27;;;4.40;99.90;;;;;;4899181;29;20279;-78
2021/01/24 17:39:33;;;;;;;1.10;1.10;;;4.10;99.90;;;;;;4897960;29;20271;-77
2021/01/24 17:42:00;;;;;;;1.30;1.30;;;3.90;99.90;;;;;;4898017;29;20239;-77
2021/01/24 17:44:27;;;;;;;1.20;1.20;;;3.70;99.90;;;;;;4896996;29;20664;-77
2021/01/24 17:46:54;;;;;;;1.13;1.13;;;3.60;99.90;;;;;;4898605;29;20212;-77
2021/01/24 17:49:40;;;;;;;1.20;1.20;;;3.60;99.90;;;;;;4898114;29;20293;-77
2021/01/24 17:52:07;;;;;;;1.20;1.20;;;3.40;99.90;;;;;;4898398;29;20703;-77
2021/01/24 17:54:33;;;;;;;1.23;1.23;;;3.30;99.90;;;;;;4898501;29;20207;-77
2021/01/24 17:57:00;;;;;;;1.20;1.20;;;3.30;99.90;;;;;;4898329;29;20211;-77
2021/01/24 17:59:27;;;;;;;1.10;1.10;;;3.30;99.90;;;;;;4898004;29;20207;-78
2021/01/24 18:01:54;;;;;;;1.20;1.20;;;3.30;99.90;;;;;;4898118;29;20279;-78
2021/01/24 18:04:21;;;;;;;1.20;1.20;;;3.30;99.90;;;;;;4897917;29;20247;-77
2021/01/24 18:06:49;;;;;;;1.13;1.13;;;3.10;99.90;;;;;;4895753;29;20215;-75
2021/01/24 18:09:16;;;;;;;1.30;1.30;;;3.20;99.90;;;;;;4897659;29;20732;-75
2021/01/24 18:11:45;;;;;;;1.30;1.30;;;3.20;99.90;;;;;;4897774;29;20294;-75
2021/01/24 18:14:12;;;;;;;1.20;1.20;;;;;;;;;;4898209;29;20669;-75
2021/01/24 18:16:41;;;;;;;1.20;1.20;;;3.20;99.90;;;;;;4897859;29;20235;-75
2021/01/24 18:19:08;;;;;;;1.30;1.30;;;;;;;;;;4897503;29;20227;-77
2021/01/24 18:21:36;;;;;;;1.20;1.20;;;3.20;99.90;;;;;;4896872;29;20247;-77
2021/01/24 18:24:05;;;;;;;1.20;1.20;;;3.20;99.90;;;;;;4897994;29;20487;-78
2021/01/24 18:26:32;;;;;;;1.20;1.20;;;;;;;;;;4897866;29;20207;-78
2021/01/24 18:28:59;;;;;;;1.37;1.37;;;3.20;99.90;;;;;;4898671;29;20443;-78
2021/01/24 18:31:26;;;;;;;1.10;1.10;;;3.10;99.90;;;;;;4896875;29;20756;-79
2021/01/24 18:33:53;;;;;;;1.20;1.20;;;3.00;99.90;;;;;;4897361;29;20302;-78
2021/01/24 18:36:20;;;;;;;1.30;1.30;;;3.00;99.90;;;;;;4897433;29;20207;-78
2021/01/24 18:38:47;;;;;;;1.17;1.17;;;2.70;99.90;;;;;;4897042;29;20672;-78
2021/01/24 18:41:14;;;;;;;1.10;1.10;;;2.60;99.90;;;;;;4897240;29;20227;-78
2021/01/24 18:43:41;;;;;;;1.20;1.20;;;2.70;99.90;;;;;;4897391;29;20208;-78
2021/01/24 18:46:08;;;;;;;1.40;1.40;;;2.70;99.90;;;;;;4897358;29;20266;-78
2021/01/24 18:48:36;;;;;;;1.30;1.30;;;2.70;99.90;;;;;;4897145;29;20211;-78
2021/01/24 18:51:03;;;;;;;1.30;1.30;;;2.70;99.90;;;;;;4888300;29;20279;-77
2021/01/24 18:53:31;;;;;;;1.33;1.33;;;2.80;99.90;;;;;;4901525;29;20648;-77
2021/01/24 18:55:58;;;;;;;1.23;1.23;;;2.80;99.90;;;;;;4897522;29;20561;-77
2021/01/24 18:58:26;;;;;;;1.30;1.30;;;2.80;99.90;;;;;;4896787;29;20211;-77
2021/01/24 19:00:53;;;;;;;1.30;1.30;;;2.80;99.90;;;;;;4897250;29;20664;-77
2021/01/24 19:03:19;;;;;;;1.20;1.20;;;2.80;99.90;;;;;;4897336;29;20259;-75
2021/01/24 19:05:47;;;;;;;1.33;1.33;;;2.80;99.90;;;;;;4899227;29;20665;-76
2021/01/24 19:08:14;;;;;;;1.40;1.40;;;2.90;99.90;;;;;;4900562;29;20276;-78
2021/01/24 19:10:41;;;;;;;1.20;1.20;;;3.00;99.90;;;;;;4899937;29;20227;-77
2021/01/24 19:13:08;;;;;;;1.30;1.30;;;2.90;99.90;;;;;;4898501;29;20271;-77
2021/01/24 19:15:36;;;;;;;1.37;1.37;;;2.90;99.90;;;;;;4897846;29;20214;-75
2021/01/24 19:18:03;;;;;;;1.10;1.10;;;2.90;99.90;;;;;;4898179;29;20235;-77
2021/01/24 19:20:30;;;;;;;1.33;1.33;;;2.80;99.90;;;;;;4897450;29;20228;-76
2021/01/24 19:22:57;;;;;;;1.10;1.10;;;2.90;99.90;;;;;;4897120;29;20203;-77
2021/01/24 19:25:24;;;;;;;1.27;1.27;;;2.80;99.90;;;;;;4897112;29;20211;-77